sensor_id;sensor_type;location;lat;lon;timestamp;temperature;humidity
19279;DHT22;9773;47.062;15.446;2023-07-09T00:00:56;20.30;99.90
19279;DHT22;9773;47.062;15.446;2023-07-09T00:03:22;20.30;99.90
19279;DHT22;9773;47.062;15.446;2023-07-09T00:05:49;20.30;99.90
19279;DHT22;9773;47.062;15.446;2023-07-09T00:08:29;20.30;99.90
19279;DHT22;9773;47.062;15.446;2023-07-09T00:10:56;20.20;99.90
19279;DHT22;9773;47.062;15.446;2023-07-09T00:13:24;20.20;99.90
19279;DHT22;9773;47.062;15.446;2023-07-09T00:15:50;20.20;99.90
19279;DHT22;9773;47.062;15.446;2023-07-09T00:18:16;20.20;99.90
19279;DHT22;9773;47.062;15.446;2023-07-09T00:20:42;20.10;99.90
19279;DHT22;9773;47.062;15.446;2023-07-09T00:23:11;20.10;99.90
19279;DHT22;9773;47.062;15.446;2023-07-09T00:25:42;20.10;99.90
19279;DHT22;9773;47.062;15.446;2023-07-09T00:28:13;20.10;99.90
19279;DHT22;9773;47.062;15.446;2023-07-09T00:30:40;20.10;99.90
19279;DHT22;9773;47.062;15.446;2023-07-09T00:33:10;20.10;99.90
19279;DHT22;9773;47.062;15.446;2023-07-09T00:35:37;20.00;99.90
19279;DHT22;9773;47.062;15.446;2023-07-09T00:38:24;20.00;99.90
19279;DHT22;9773;47.062;15.446;2023-07-09T00:43:29;20.00;99.90
19279;DHT22;9773;47.062;15.446;2023-07-09T00:48:54;20.00;99.90
19279;DHT22;9773;47.062;15.446;2023-07-09T00:51:24;20.00;99.90
19279;DHT22;9773;47.062;15.446;2023-07-09T00:53:54;20.10;99.90
19279;DHT22;9773;47.062;15.446;2023-07-09T00:56:36;20.10;99.90
19279;DHT22;9773;47.062;15.446;2023-07-09T00:59:07;20.00;99.90
19279;DHT22;9773;47.062;15.446;2023-07-09T01:01:35;20.10;99.90
19279;DHT22;9773;47.062;15.446;2023-07-09T01:04:02;20.10;99.90
19279;DHT22;9773;47.062;15.446;2023-07-09T01:06:43;20.10;99.90
19279;DHT22;9773;47.062;15.446;2023-07-09T01:09:11;20.10;99.90
19279;DHT22;9773;47.062;15.446;2023-07-09T01:11:37;20.20;99.90
19279;DHT22;9773;47.062;15.446;2023-07-09T01:14:08;20.20;99.90
19279;DHT22;9773;47.062;15.446;2023-07-09T01:16:37;20.30;99.90
19279;DHT22;9773;47.062;15.446;2023-07-09T01:19:05;20.30;99.90
19279;DHT22;9773;47.062;15.446;2023-07-09T01:21:31;20.30;99.90
19279;DHT22;9773;47.062;15.446;2023-07-09T01:23:57;20.30;99.90
19279;DHT22;9773;47.062;15.446;2023-07-09T01:26:26;20.30;99.90
19279;DHT22;9773;47.062;15.446;2023-07-09T01:28:55;20.30;99.90
19279;DHT22;9773;47.062;15.446;2023-07-09T01:31:22;20.30;99.90
19279;DHT22;9773;47.062;15.446;2023-07-09T01:33:49;20.30;99.90
19279;DHT22;9773;47.062;15.446;2023-07-09T01:36:20;20.30;99.90
19279;DHT22;9773;47.062;15.446;2023-07-09T01:38:50;20.30;99.90
19279;DHT22;9773;47.062;15.446;2023-07-09T01:41:18;20.30;99.90
19279;DHT22;9773;47.062;15.446;2023-07-09T01:43:46;20.30;99.90
19279;DHT22;9773;47.062;15.446;2023-07-09T01:46:12;20.20;99.90
19279;DHT22;9773;47.062;15.446;2023-07-09T01:48:40;20.20;99.90
19279;DHT22;9773;47.062;15.446;2023-07-09T01:51:11;20.20;99.90
19279;DHT22;9773;47.062;15.446;2023-07-09T01:53:38;20.20;99.90
19279;DHT22;9773;47.062;15.446;2023-07-09T01:56:05;20.20;99.90
19279;DHT22;9773;47.062;15.446;2023-07-09T01:58:34;20.20;99.90
19279;DHT22;9773;47.062;15.446;2023-07-09T02:01:00;20.10;99.90
19279;DHT22;9773;47.062;15.446;2023-07-09T02:03:26;20.00;99.90
19279;DHT22;9773;47.062;15.446;2023-07-09T02:05:55;20.00;99.90
19279;DHT22;9773;47.062;15.446;2023-07-09T02:08:23;20.00;99.90
19279;DHT22;9773;47.062;15.446;2023-07-09T02:10:49;20.00;99.90
19279;DHT22;9773;47.062;15.446;2023-07-09T02:13:15;20.00;99.90
19279;DHT22;9773;47.062;15.446;2023-07-09T02:15:42;19.90;99.90
19279;DHT22;9773;47.062;15.446;2023-07-09T02:18:10;19.90;99.90
19279;DHT22;9773;47.062;15.446;2023-07-09T02:20:36;19.90;99.90
19279;DHT22;9773;47.062;15.446;2023-07-09T02:23:02;19.80;99.90
19279;DHT22;9773;47.062;15.446;2023-07-09T02:25:28;19.80;99.90
19279;DHT22;9773;47.062;15.446;2023-07-09T02:27:55;19.80;99.90
19279;DHT22;9773;47.062;15.446;2023-07-09T02:30:21;19.80;99.90
19279;DHT22;9773;47.062;15.446;2023-07-09T02:32:46;19.80;99.90
19279;DHT22;9773;47.062;15.446;2023-07-09T02:35:12;19.80;99.90
19279;DHT22;9773;47.062;15.446;2023-07-09T02:37:38;19.80;99.90
19279;DHT22;9773;47.062;15.446;2023-07-09T02:40:05;19.80;99.90
19279;DHT22;9773;47.062;15.446;2023-07-09T02:42:31;19.80;99.90
19279;DHT22;9773;47.062;15.446;2023-07-09T02:44:56;19.70;99.90
19279;DHT22;9773;47.062;15.446;2023-07-09T02:47:22;19.70;99.90
19279;DHT22;9773;47.062;15.446;2023-07-09T02:49:48;19.80;99.90
19279;DHT22;9773;47.062;15.446;2023-07-09T02:52:14;19.80;99.90
19279;DHT22;9773;47.062;15.446;2023-07-09T02:54:40;19.80;99.90
19279;DHT22;9773;47.062;15.446;2023-07-09T02:57:06;19.80;99.90
19279;DHT22;9773;47.062;15.446;2023-07-09T02:59:32;19.70;99.90
19279;DHT22;9773;47.062;15.446;2023-07-09T03:01:59;19.70;99.90
19279;DHT22;9773;47.062;15.446;2023-07-09T03:04:25;19.70;99.90
19279;DHT22;9773;47.062;15.446;2023-07-09T03:06:51;19.70;99.90
19279;DHT22;9773;47.062;15.446;2023-07-09T03:09:18;19.70;99.90
19279;DHT22;9773;47.062;15.446;2023-07-09T03:11:44;19.70;99.90
19279;DHT22;9773;47.062;15.446;2023-07-09T03:14:10;19.60;99.90
19279;DHT22;9773;47.062;15.446;2023-07-09T03:16:36;19.60;99.90
19279;DHT22;9773;47.062;15.446;2023-07-09T03:19:03;19.60;99.90
19279;DHT22;9773;47.062;15.446;2023-07-09T03:21:30;19.60;99.90
19279;DHT22;9773;47.062;15.446;2023-07-09T03:23:58;19.50;99.90
19279;DHT22;9773;47.062;15.446;2023-07-09T03:26:24;19.60;99.90
19279;DHT22;9773;47.062;15.446;2023-07-09T03:28:51;19.50;99.90
19279;DHT22;9773;47.062;15.446;2023-07-09T03:31:17;19.50;99.90
19279;DHT22;9773;47.062;15.446;2023-07-09T03:33:43;19.50;99.90
19279;DHT22;9773;47.062;15.446;2023-07-09T03:36:09;19.50;99.90
19279;DHT22;9773;47.062;15.446;2023-07-09T03:38:35;19.50;99.90
19279;DHT22;9773;47.062;15.446;2023-07-09T03:41:01;19.50;99.90
19279;DHT22;9773;47.062;15.446;2023-07-09T03:43:29;19.60;99.90
19279;DHT22;9773;47.062;15.446;2023-07-09T03:45:54;19.60;99.90
19279;DHT22;9773;47.062;15.446;2023-07-09T03:48:20;19.60;99.90
19279;DHT22;9773;47.062;15.446;2023-07-09T03:50:47;19.60;99.90
19279;DHT22;9773;47.062;15.446;2023-07-09T03:53:13;19.60;99.90
19279;DHT22;9773;47.062;15.446;2023-07-09T03:55:40;19.60;99.90
19279;DHT22;9773;47.062;15.446;2023-07-09T03:58:06;19.70;99.90
19279;DHT22;9773;47.062;15.446;2023-07-09T04:00:32;19.70;99.90
19279;DHT22;9773;47.062;15.446;2023-07-09T04:02:58;19.70;99.90
19279;DHT22;9773;47.062;15.446;2023-07-09T04:05:24;19.70;99.90
19279;DHT22;9773;47.062;15.446;2023-07-09T04:07:50;19.70;99.90
19279;DHT22;9773;47.062;15.446;2023-07-09T04:10:16;19.80;99.90
19279;DHT22;9773;47.062;15.446;2023-07-09T04:12:42;19.90;99.90
19279;DHT22;9773;47.062;15.446;2023-07-09T04:15:08;20.10;99.90
19279;DHT22;9773;47.062;15.446;2023-07-09T04:17:38;20.00;99.90
19279;DHT22;9773;47.062;15.446;2023-07-09T04:20:05;20.00;99.90
19279;DHT22;9773;47.062;15.446;2023-07-09T04:22:31;20.10;99.90
19279;DHT22;9773;47.062;15.446;2023-07-09T04:24:58;20.20;99.90
19279;DHT22;9773;47.062;15.446;2023-07-09T04:27:24;20.20;99.90
19279;DHT22;9773;47.062;15.446;2023-07-09T04:29:53;20.20;99.90
19279;DHT22;9773;47.062;15.446;2023-07-09T04:32:19;20.30;99.90
19279;DHT22;9773;47.062;15.446;2023-07-09T04:34:45;20.30;99.90
19279;DHT22;9773;47.062;15.446;2023-07-09T04:37:12;20.40;99.90
19279;DHT22;9773;47.062;15.446;2023-07-09T04:39:38;20.50;99.90
19279;DHT22;9773;47.062;15.446;2023-07-09T04:42:06;20.50;99.90
19279;DHT22;9773;47.062;15.446;2023-07-09T04:44:32;20.60;99.90
19279;DHT22;9773;47.062;15.446;2023-07-09T04:46:57;20.70;99.90
19279;DHT22;9773;47.062;15.446;2023-07-09T04:49:23;20.70;99.90
19279;DHT22;9773;47.062;15.446;2023-07-09T04:51:49;20.70;99.90
19279;DHT22;9773;47.062;15.446;2023-07-09T04:54:15;20.80;99.90
19279;DHT22;9773;47.062;15.446;2023-07-09T04:56:42;20.90;99.90
19279;DHT22;9773;47.062;15.446;2023-07-09T04:59:11;21.00;99.90
19279;DHT22;9773;47.062;15.446;2023-07-09T05:01:38;21.10;99.90
19279;DHT22;9773;47.062;15.446;2023-07-09T05:04:04;21.10;99.90
19279;DHT22;9773;47.062;15.446;2023-07-09T05:06:30;21.20;99.90
19279;DHT22;9773;47.062;15.446;2023-07-09T05:08:56;21.10;99.90
19279;DHT22;9773;47.062;15.446;2023-07-09T05:11:21;21.20;99.90
19279;DHT22;9773;47.062;15.446;2023-07-09T05:13:47;21.20;99.90
19279;DHT22;9773;47.062;15.446;2023-07-09T05:16:14;21.20;99.90
19279;DHT22;9773;47.062;15.446;2023-07-09T05:18:40;21.20;99.90
19279;DHT22;9773;47.062;15.446;2023-07-09T05:21:06;21.30;99.90
19279;DHT22;9773;47.062;15.446;2023-07-09T05:23:32;21.30;99.90
19279;DHT22;9773;47.062;15.446;2023-07-09T05:25:59;21.40;99.90
19279;DHT22;9773;47.062;15.446;2023-07-09T05:28:25;21.40;99.90
19279;DHT22;9773;47.062;15.446;2023-07-09T05:30:51;21.60;99.90
19279;DHT22;9773;47.062;15.446;2023-07-09T05:33:18;21.70;99.90
19279;DHT22;9773;47.062;15.446;2023-07-09T05:35:44;21.60;99.90
19279;DHT22;9773;47.062;15.446;2023-07-09T05:38:11;21.60;99.90
19279;DHT22;9773;47.062;15.446;2023-07-09T05:40:37;21.50;99.90
19279;DHT22;9773;47.062;15.446;2023-07-09T05:43:03;21.50;99.90
19279;DHT22;9773;47.062;15.446;2023-07-09T05:45:30;21.60;99.90
19279;DHT22;9773;47.062;15.446;2023-07-09T05:47:58;21.60;99.90
19279;DHT22;9773;47.062;15.446;2023-07-09T05:50:24;21.70;99.90
19279;DHT22;9773;47.062;15.446;2023-07-09T05:52:49;21.70;99.90
19279;DHT22;9773;47.062;15.446;2023-07-09T05:55:15;21.60;99.90
19279;DHT22;9773;47.062;15.446;2023-07-09T05:57:41;21.70;99.90
19279;DHT22;9773;47.062;15.446;2023-07-09T06:00:07;21.80;99.90
19279;DHT22;9773;47.062;15.446;2023-07-09T06:02:34;22.00;99.90
19279;DHT22;9773;47.062;15.446;2023-07-09T06:05:00;22.00;99.90
19279;DHT22;9773;47.062;15.446;2023-07-09T06:07:26;22.10;99.90
19279;DHT22;9773;47.062;15.446;2023-07-09T06:09:52;22.20;99.90
19279;DHT22;9773;47.062;15.446;2023-07-09T06:12:18;22.30;99.90
19279;DHT22;9773;47.062;15.446;2023-07-09T06:14:45;22.50;99.90
19279;DHT22;9773;47.062;15.446;2023-07-09T06:17:12;22.60;99.90
19279;DHT22;9773;47.062;15.446;2023-07-09T06:19:38;22.60;99.90
19279;DHT22;9773;47.062;15.446;2023-07-09T06:22:04;22.70;99.90
19279;DHT22;9773;47.062;15.446;2023-07-09T06:24:30;22.90;99.90
19279;DHT22;9773;47.062;15.446;2023-07-09T06:26:56;22.90;99.90
19279;DHT22;9773;47.062;15.446;2023-07-09T06:29:23;23.00;99.90
19279;DHT22;9773;47.062;15.446;2023-07-09T06:31:48;23.00;99.90
19279;DHT22;9773;47.062;15.446;2023-07-09T06:34:14;23.10;99.90
19279;DHT22;9773;47.062;15.446;2023-07-09T06:36:40;23.10;99.90
19279;DHT22;9773;47.062;15.446;2023-07-09T06:39:06;23.10;99.90
19279;DHT22;9773;47.062;15.446;2023-07-09T06:41:32;23.00;99.90
19279;DHT22;9773;47.062;15.446;2023-07-09T06:44:07;23.10;99.90
19279;DHT22;9773;47.062;15.446;2023-07-09T06:46:34;23.20;99.90
19279;DHT22;9773;47.062;15.446;2023-07-09T06:49:01;23.20;99.90
19279;DHT22;9773;47.062;15.446;2023-07-09T06:51:27;23.30;99.90
19279;DHT22;9773;47.062;15.446;2023-07-09T06:53:52;23.40;99.90
19279;DHT22;9773;47.062;15.446;2023-07-09T06:56:18;23.50;99.90
19279;DHT22;9773;47.062;15.446;2023-07-09T06:58:44;23.50;99.90
19279;DHT22;9773;47.062;15.446;2023-07-09T07:01:12;23.50;99.90
19279;DHT22;9773;47.062;15.446;2023-07-09T07:03:38;23.50;99.90
19279;DHT22;9773;47.062;15.446;2023-07-09T07:06:04;23.60;99.90
19279;DHT22;9773;47.062;15.446;2023-07-09T07:08:32;23.80;99.90
19279;DHT22;9773;47.062;15.446;2023-07-09T07:11:00;23.90;99.90
19279;DHT22;9773;47.062;15.446;2023-07-09T07:13:40;24.10;99.90
19279;DHT22;9773;47.062;15.446;2023-07-09T07:16:10;24.30;99.90
19279;DHT22;9773;47.062;15.446;2023-07-09T07:18:37;24.30;99.90
19279;DHT22;9773;47.062;15.446;2023-07-09T07:21:04;24.40;99.90
19279;DHT22;9773;47.062;15.446;2023-07-09T07:23:30;24.40;99.90
19279;DHT22;9773;47.062;15.446;2023-07-09T07:25:56;24.40;99.90
19279;DHT22;9773;47.062;15.446;2023-07-09T07:28:22;24.60;99.90
19279;DHT22;9773;47.062;15.446;2023-07-09T07:30:58;24.70;99.90
19279;DHT22;9773;47.062;15.446;2023-07-09T07:33:24;24.70;99.90
19279;DHT22;9773;47.062;15.446;2023-07-09T07:35:49;24.80;99.90
19279;DHT22;9773;47.062;15.446;2023-07-09T07:38:15;24.90;99.90
19279;DHT22;9773;47.062;15.446;2023-07-09T07:40:44;24.90;99.90
19279;DHT22;9773;47.062;15.446;2023-07-09T07:43:10;24.90;99.90
19279;DHT22;9773;47.062;15.446;2023-07-09T07:45:39;25.10;99.90
19279;DHT22;9773;47.062;15.446;2023-07-09T07:48:05;25.00;99.90
19279;DHT22;9773;47.062;15.446;2023-07-09T07:50:31;25.10;99.90
19279;DHT22;9773;47.062;15.446;2023-07-09T07:52:57;25.30;99.90
19279;DHT22;9773;47.062;15.446;2023-07-09T07:55:23;25.30;99.90
19279;DHT22;9773;47.062;15.446;2023-07-09T07:57:48;25.30;99.90
19279;DHT22;9773;47.062;15.446;2023-07-09T08:00:15;25.40;99.90
19279;DHT22;9773;47.062;15.446;2023-07-09T08:02:42;25.50;99.90
19279;DHT22;9773;47.062;15.446;2023-07-09T08:05:08;25.50;99.90
19279;DHT22;9773;47.062;15.446;2023-07-09T08:07:34;25.60;99.90
19279;DHT22;9773;47.062;15.446;2023-07-09T08:10:00;25.80;99.90
19279;DHT22;9773;47.062;15.446;2023-07-09T08:12:26;25.80;99.90
19279;DHT22;9773;47.062;15.446;2023-07-09T08:14:52;25.90;99.90
19279;DHT22;9773;47.062;15.446;2023-07-09T08:17:17;26.10;99.90
19279;DHT22;9773;47.062;15.446;2023-07-09T08:19:50;26.10;99.90
19279;DHT22;9773;47.062;15.446;2023-07-09T08:22:16;26.20;99.90
19279;DHT22;9773;47.062;15.446;2023-07-09T08:24:42;26.40;99.90
19279;DHT22;9773;47.062;15.446;2023-07-09T08:27:09;26.40;99.90
19279;DHT22;9773;47.062;15.446;2023-07-09T08:29:35;26.50;99.90
19279;DHT22;9773;47.062;15.446;2023-07-09T08:32:01;26.50;99.90
19279;DHT22;9773;47.062;15.446;2023-07-09T08:34:27;26.60;99.90
19279;DHT22;9773;47.062;15.446;2023-07-09T08:36:53;26.60;99.90
19279;DHT22;9773;47.062;15.446;2023-07-09T08:39:19;26.70;99.90
19279;DHT22;9773;47.062;15.446;2023-07-09T08:42:00;26.80;99.90
19279;DHT22;9773;47.062;15.446;2023-07-09T08:44:42;26.90;99.90
19279;DHT22;9773;47.062;15.446;2023-07-09T08:50:16;27.00;99.90
19279;DHT22;9773;47.062;15.446;2023-07-09T08:52:44;27.00;99.90
19279;DHT22;9773;47.062;15.446;2023-07-09T08:55:19;27.10;99.90
19279;DHT22;9773;47.062;15.446;2023-07-09T08:57:47;27.20;99.90
19279;DHT22;9773;47.062;15.446;2023-07-09T09:00:27;27.30;99.90
19279;DHT22;9773;47.062;15.446;2023-07-09T09:05:33;27.50;99.90
19279;DHT22;9773;47.062;15.446;2023-07-09T09:08:04;27.50;99.90
19279;DHT22;9773;47.062;15.446;2023-07-09T09:10:47;27.50;99.90
19279;DHT22;9773;47.062;15.446;2023-07-09T09:13:19;27.50;99.90
19279;DHT22;9773;47.062;15.446;2023-07-09T09:15:47;27.70;99.90
19279;DHT22;9773;47.062;15.446;2023-07-09T09:21:01;27.80;99.90
19279;DHT22;9773;47.062;15.446;2023-07-09T09:23:50;27.80;99.90
19279;DHT22;9773;47.062;15.446;2023-07-09T09:28:55;27.90;99.30
19279;DHT22;9773;47.062;15.446;2023-07-09T09:31:21;27.90;99.90
19279;DHT22;9773;47.062;15.446;2023-07-09T09:33:48;28.00;99.90
19279;DHT22;9773;47.062;15.446;2023-07-09T09:36:25;28.10;99.90
19279;DHT22;9773;47.062;15.446;2023-07-09T09:38:52;28.20;99.90
19279;DHT22;9773;47.062;15.446;2023-07-09T09:41:29;28.30;99.40
19279;DHT22;9773;47.062;15.446;2023-07-09T09:43:55;28.30;99.70
19279;DHT22;9773;47.062;15.446;2023-07-09T09:46:26;28.30;99.30
19279;DHT22;9773;47.062;15.446;2023-07-09T09:48:59;28.30;98.70
19279;DHT22;9773;47.062;15.446;2023-07-09T09:51:26;28.40;98.80
19279;DHT22;9773;47.062;15.446;2023-07-09T09:54:01;28.50;97.90
19279;DHT22;9773;47.062;15.446;2023-07-09T09:56:29;28.50;97.20
19279;DHT22;9773;47.062;15.446;2023-07-09T09:58:56;28.50;97.10
19279;DHT22;9773;47.062;15.446;2023-07-09T10:01:34;28.60;97.00
19279;DHT22;9773;47.062;15.446;2023-07-09T10:04:02;28.50;96.30
19279;DHT22;9773;47.062;15.446;2023-07-09T10:06:35;28.60;96.30
19279;DHT22;9773;47.062;15.446;2023-07-09T10:12:08;28.80;97.70
19279;DHT22;9773;47.062;15.446;2023-07-09T10:17:26;28.90;96.90
19279;DHT22;9773;47.062;15.446;2023-07-09T10:20:00;29.00;97.10
19279;DHT22;9773;47.062;15.446;2023-07-09T10:31:05;29.10;96.30
19279;DHT22;9773;47.062;15.446;2023-07-09T10:36:50;29.10;96.70
19279;DHT22;9773;47.062;15.446;2023-07-09T10:39:22;29.20;96.50
19279;DHT22;9773;47.062;15.446;2023-07-09T10:41:50;29.20;95.20
19279;DHT22;9773;47.062;15.446;2023-07-09T10:44:24;29.30;94.10
19279;DHT22;9773;47.062;15.446;2023-07-09T10:46:57;29.30;93.70
19279;DHT22;9773;47.062;15.446;2023-07-09T10:49:30;29.40;93.90
19279;DHT22;9773;47.062;15.446;2023-07-09T10:52:23;29.40;94.20
19279;DHT22;9773;47.062;15.446;2023-07-09T10:55:27;29.40;94.50
19279;DHT22;9773;47.062;15.446;2023-07-09T10:58:04;29.40;94.00
19279;DHT22;9773;47.062;15.446;2023-07-09T11:00:36;29.30;92.70
19279;DHT22;9773;47.062;15.446;2023-07-09T11:03:13;29.20;93.80
19279;DHT22;9773;47.062;15.446;2023-07-09T11:05:41;29.20;94.80
19279;DHT22;9773;47.062;15.446;2023-07-09T11:08:13;29.20;94.60
19279;DHT22;9773;47.062;15.446;2023-07-09T11:11:08;29.30;94.10
19279;DHT22;9773;47.062;15.446;2023-07-09T11:13:45;29.40;94.00
19279;DHT22;9773;47.062;15.446;2023-07-09T11:16:29;29.40;93.90
19279;DHT22;9773;47.062;15.446;2023-07-09T11:19:01;29.50;94.50
19279;DHT22;9773;47.062;15.446;2023-07-09T11:21:32;29.60;94.70
19279;DHT22;9773;47.062;15.446;2023-07-09T11:23:59;29.70;93.70
19279;DHT22;9773;47.062;15.446;2023-07-09T11:26:30;29.70;93.70
19279;DHT22;9773;47.062;15.446;2023-07-09T11:29:16;29.70;93.60
19279;DHT22;9773;47.062;15.446;2023-07-09T11:32:08;29.70;94.20
19279;DHT22;9773;47.062;15.446;2023-07-09T11:34:45;29.80;92.90
19279;DHT22;9773;47.062;15.446;2023-07-09T11:37:12;29.80;92.80
19279;DHT22;9773;47.062;15.446;2023-07-09T11:42:33;29.80;92.90
19279;DHT22;9773;47.062;15.446;2023-07-09T11:45:11;29.90;93.20
19279;DHT22;9773;47.062;15.446;2023-07-09T11:47:41;29.90;92.10
19279;DHT22;9773;47.062;15.446;2023-07-09T11:50:29;29.90;92.50
19279;DHT22;9773;47.062;15.446;2023-07-09T11:53:02;30.00;91.20
19279;DHT22;9773;47.062;15.446;2023-07-09T11:55:31;30.00;91.30
19279;DHT22;9773;47.062;15.446;2023-07-09T11:58:02;29.80;91.60
19279;DHT22;9773;47.062;15.446;2023-07-09T12:00:36;29.80;92.00
19279;DHT22;9773;47.062;15.446;2023-07-09T12:03:03;29.90;91.70
19279;DHT22;9773;47.062;15.446;2023-07-09T12:05:30;29.90;90.60
19279;DHT22;9773;47.062;15.446;2023-07-09T12:07:57;29.90;90.70
19279;DHT22;9773;47.062;15.446;2023-07-09T12:10:27;29.90;90.60
19279;DHT22;9773;47.062;15.446;2023-07-09T12:12:55;29.90;90.50
19279;DHT22;9773;47.062;15.446;2023-07-09T12:15:27;29.80;90.30
19279;DHT22;9773;47.062;15.446;2023-07-09T12:18:08;29.80;90.20
19279;DHT22;9773;47.062;15.446;2023-07-09T12:20:36;29.80;90.10
19279;DHT22;9773;47.062;15.446;2023-07-09T12:23:32;29.90;90.30
19279;DHT22;9773;47.062;15.446;2023-07-09T12:26:02;29.80;90.30
19279;DHT22;9773;47.062;15.446;2023-07-09T12:28:29;29.70;91.30
19279;DHT22;9773;47.062;15.446;2023-07-09T12:30:57;29.70;91.20
19279;DHT22;9773;47.062;15.446;2023-07-09T12:33:26;29.70;91.30
19279;DHT22;9773;47.062;15.446;2023-07-09T12:36:07;29.70;91.70
19279;DHT22;9773;47.062;15.446;2023-07-09T12:38:41;29.70;92.10
19279;DHT22;9773;47.062;15.446;2023-07-09T12:41:35;29.70;92.30
19279;DHT22;9773;47.062;15.446;2023-07-09T12:44:03;29.70;91.30
19279;DHT22;9773;47.062;15.446;2023-07-09T12:46:30;29.70;91.40
19279;DHT22;9773;47.062;15.446;2023-07-09T12:48:56;29.80;91.80
19279;DHT22;9773;47.062;15.446;2023-07-09T12:51:24;29.80;92.30
19279;DHT22;9773;47.062;15.446;2023-07-09T12:54:15;29.90;92.40
19279;DHT22;9773;47.062;15.446;2023-07-09T12:56:43;29.90;92.50
19279;DHT22;9773;47.062;15.446;2023-07-09T12:59:19;29.90;92.50
19279;DHT22;9773;47.062;15.446;2023-07-09T13:02:01;29.80;92.10
19279;DHT22;9773;47.062;15.446;2023-07-09T13:04:33;29.90;91.90
19279;DHT22;9773;47.062;15.446;2023-07-09T13:06:59;29.90;91.40
19279;DHT22;9773;47.062;15.446;2023-07-09T13:09:26;30.00;91.40
19279;DHT22;9773;47.062;15.446;2023-07-09T13:11:53;30.00;91.10
19279;DHT22;9773;47.062;15.446;2023-07-09T13:14:26;29.90;91.20
19279;DHT22;9773;47.062;15.446;2023-07-09T13:16:52;29.80;91.10
19279;DHT22;9773;47.062;15.446;2023-07-09T13:19:19;29.70;91.70
19279;DHT22;9773;47.062;15.446;2023-07-09T13:21:45;29.70;91.10
19279;DHT22;9773;47.062;15.446;2023-07-09T13:24:31;29.70;91.10
19279;DHT22;9773;47.062;15.446;2023-07-09T13:26:59;29.70;91.20
19279;DHT22;9773;47.062;15.446;2023-07-09T13:29:26;29.80;90.60
19279;DHT22;9773;47.062;15.446;2023-07-09T13:31:54;29.90;90.10
19279;DHT22;9773;47.062;15.446;2023-07-09T13:36:47;30.20;90.00
19279;DHT22;9773;47.062;15.446;2023-07-09T13:39:14;30.20;90.00
19279;DHT22;9773;47.062;15.446;2023-07-09T13:41:45;30.30;90.30
19279;DHT22;9773;47.062;15.446;2023-07-09T13:44:26;30.20;89.70
19279;DHT22;9773;47.062;15.446;2023-07-09T13:46:54;30.20;89.50
19279;DHT22;9773;47.062;15.446;2023-07-09T13:49:25;30.30;89.10
19279;DHT22;9773;47.062;15.446;2023-07-09T13:51:52;30.20;88.20
19279;DHT22;9773;47.062;15.446;2023-07-09T13:54:21;30.20;88.00
19279;DHT22;9773;47.062;15.446;2023-07-09T13:56:49;30.10;88.00
19279;DHT22;9773;47.062;15.446;2023-07-09T13:59:23;30.20;89.60
19279;DHT22;9773;47.062;15.446;2023-07-09T14:01:51;30.20;89.60
19279;DHT22;9773;47.062;15.446;2023-07-09T14:04:18;30.20;90.50
19279;DHT22;9773;47.062;15.446;2023-07-09T14:06:45;30.30;90.00
19279;DHT22;9773;47.062;15.446;2023-07-09T14:09:12;30.40;90.10
19279;DHT22;9773;47.062;15.446;2023-07-09T14:11:43;30.50;89.90
19279;DHT22;9773;47.062;15.446;2023-07-09T14:14:24;30.60;88.80
19279;DHT22;9773;47.062;15.446;2023-07-09T14:16:51;30.50;88.70
19279;DHT22;9773;47.062;15.446;2023-07-09T14:19:23;30.60;88.80
19279;DHT22;9773;47.062;15.446;2023-07-09T14:21:50;30.60;89.10
19279;DHT22;9773;47.062;15.446;2023-07-09T14:24:25;30.80;89.20
19279;DHT22;9773;47.062;15.446;2023-07-09T14:26:53;30.80;88.00
19279;DHT22;9773;47.062;15.446;2023-07-09T14:29:21;30.90;88.60
19279;DHT22;9773;47.062;15.446;2023-07-09T14:31:47;31.10;88.10
19279;DHT22;9773;47.062;15.446;2023-07-09T14:34:25;31.30;87.30
19279;DHT22;9773;47.062;15.446;2023-07-09T14:36:56;31.30;87.90
19279;DHT22;9773;47.062;15.446;2023-07-09T14:39:28;31.30;88.20
19279;DHT22;9773;47.062;15.446;2023-07-09T14:41:55;31.40;88.10
19279;DHT22;9773;47.062;15.446;2023-07-09T14:44:30;31.40;86.80
19279;DHT22;9773;47.062;15.446;2023-07-09T14:46:59;31.40;87.20
19279;DHT22;9773;47.062;15.446;2023-07-09T14:49:26;31.40;87.00
19279;DHT22;9773;47.062;15.446;2023-07-09T14:51:53;31.30;86.20
19279;DHT22;9773;47.062;15.446;2023-07-09T14:54:27;31.00;86.40
19279;DHT22;9773;47.062;15.446;2023-07-09T14:56:56;30.90;86.50
19279;DHT22;9773;47.062;15.446;2023-07-09T14:59:27;30.80;86.50
19279;DHT22;9773;47.062;15.446;2023-07-09T15:01:54;30.70;89.10
19279;DHT22;9773;47.062;15.446;2023-07-09T15:04:36;30.80;87.40
19279;DHT22;9773;47.062;15.446;2023-07-09T15:07:04;30.80;87.00
19279;DHT22;9773;47.062;15.446;2023-07-09T15:09:36;30.90;87.30
19279;DHT22;9773;47.062;15.446;2023-07-09T15:12:04;30.90;87.70
19279;DHT22;9773;47.062;15.446;2023-07-09T15:14:34;30.90;87.90
19279;DHT22;9773;47.062;15.446;2023-07-09T15:17:00;30.90;87.80
19279;DHT22;9773;47.062;15.446;2023-07-09T15:19:26;30.80;87.70
19279;DHT22;9773;47.062;15.446;2023-07-09T15:21:51;30.80;88.00
19279;DHT22;9773;47.062;15.446;2023-07-09T15:24:31;30.60;88.40
19279;DHT22;9773;47.062;15.446;2023-07-09T15:26:59;30.50;88.90
19279;DHT22;9773;47.062;15.446;2023-07-09T15:29:27;30.40;88.40
19279;DHT22;9773;47.062;15.446;2023-07-09T15:31:53;30.30;88.70
19279;DHT22;9773;47.062;15.446;2023-07-09T15:34:19;30.30;88.60
19279;DHT22;9773;47.062;15.446;2023-07-09T15:37:10;30.20;89.10
19279;DHT22;9773;47.062;15.446;2023-07-09T15:39:37;30.10;88.30
19279;DHT22;9773;47.062;15.446;2023-07-09T15:42:08;30.00;89.20
19279;DHT22;9773;47.062;15.446;2023-07-09T15:44:35;30.00;88.60
19279;DHT22;9773;47.062;15.446;2023-07-09T15:47:00;29.90;88.80
19279;DHT22;9773;47.062;15.446;2023-07-09T15:49:29;29.90;89.30
19279;DHT22;9773;47.062;15.446;2023-07-09T15:51:55;29.90;90.10
19279;DHT22;9773;47.062;15.446;2023-07-09T15:54:43;29.90;90.50
19279;DHT22;9773;47.062;15.446;2023-07-09T15:57:14;29.90;90.70
19279;DHT22;9773;47.062;15.446;2023-07-09T15:59:41;29.80;90.40
19279;DHT22;9773;47.062;15.446;2023-07-09T16:02:13;29.70;90.60
19279;DHT22;9773;47.062;15.446;2023-07-09T16:04:43;29.70;90.60
19279;DHT22;9773;47.062;15.446;2023-07-09T16:07:10;29.60;91.00
19279;DHT22;9773;47.062;15.446;2023-07-09T16:09:36;29.60;90.70
19279;DHT22;9773;47.062;15.446;2023-07-09T16:12:03;29.60;90.70
19279;DHT22;9773;47.062;15.446;2023-07-09T16:14:31;29.50;90.80
19279;DHT22;9773;47.062;15.446;2023-07-09T16:17:01;29.50;90.90
19279;DHT22;9773;47.062;15.446;2023-07-09T16:19:29;29.50;91.10
19279;DHT22;9773;47.062;15.446;2023-07-09T16:22:03;29.40;91.50